Afton, Michigan
Current Conditions -  °F | °C
As of 11:37 AM on Thursday 23 Oct 2014 (Local Time) from KSLH Reporting Station
Clear Clear  
Wind Chill: 43°   Ceiling: Unl
Heat Index: 47°   Visibility: 10mi
Dew Point: 40°   Wind: 9mph
Humidity: 75%   Direction: 220°SW
Pressure: 30.2"   Gusts: NA
Location:  45.36°N, 84.47°W
Report Text: KSLH 231537Z AUTO 22008KT 10SM CLR 08/04 A3020 RMK AO2 T00860044
Loading
Personal Weather Stations






























Interactive Weather Map
Tropical Storm Tracking
New forecast layout! Learn more

10-Day Weather Forecast

Advertisements
Track Severe Weather on mobile